sensor_id;sensor_type;location;lat;lon;timestamp;temperature;humidity
38325;DHT22;24126;52.672;13.622;2024-03-06T00:01:08;9.90;67.00
38325;DHT22;24126;52.672;13.622;2024-03-06T00:03:35;9.90;66.90
38325;DHT22;24126;52.672;13.622;2024-03-06T00:06:02;9.90;66.80
38325;DHT22;24126;52.672;13.622;2024-03-06T00:08:28;9.90;66.80
38325;DHT22;24126;52.672;13.622;2024-03-06T00:10:56;9.90;66.80
38325;DHT22;24126;52.672;13.622;2024-03-06T00:13:23;9.90;66.60
38325;DHT22;24126;52.672;13.622;2024-03-06T00:15:50;9.90;66.50
38325;DHT22;24126;52.672;13.622;2024-03-06T00:18:17;9.90;66.60
38325;DHT22;24126;52.672;13.622;2024-03-06T00:20:53;9.90;66.60
38325;DHT22;24126;52.672;13.622;2024-03-06T00:23:20;9.90;66.60
38325;DHT22;24126;52.672;13.622;2024-03-06T00:25:47;9.90;66.80
38325;DHT22;24126;52.672;13.622;2024-03-06T00:28:14;9.90;66.80
38325;DHT22;24126;52.672;13.622;2024-03-06T00:30:41;9.90;66.70
38325;DHT22;24126;52.672;13.622;2024-03-06T00:33:08;9.90;66.70
38325;DHT22;24126;52.672;13.622;2024-03-06T00:35:35;9.90;66.70
38325;DHT22;24126;52.672;13.622;2024-03-06T00:38:02;9.90;66.80
38325;DHT22;24126;52.672;13.622;2024-03-06T00:40:29;9.90;66.80
38325;DHT22;24126;52.672;13.622;2024-03-06T00:42:58;9.90;66.80
38325;DHT22;24126;52.672;13.622;2024-03-06T00:45:25;9.90;66.80
38325;DHT22;24126;52.672;13.622;2024-03-06T00:47:52;9.80;66.70
38325;DHT22;24126;52.672;13.622;2024-03-06T00:50:19;9.80;66.80
38325;DHT22;24126;52.672;13.622;2024-03-06T00:52:47;9.80;66.80
38325;DHT22;24126;52.672;13.622;2024-03-06T00:55:15;9.80;66.90
38325;DHT22;24126;52.672;13.622;2024-03-06T00:57:42;9.80;67.00
38325;DHT22;24126;52.672;13.622;2024-03-06T01:00:10;9.80;67.00
38325;DHT22;24126;52.672;13.622;2024-03-06T01:02:37;9.80;67.10
38325;DHT22;24126;52.672;13.622;2024-03-06T01:05:04;9.80;67.20
38325;DHT22;24126;52.672;13.622;2024-03-06T01:07:32;9.70;67.10
38325;DHT22;24126;52.672;13.622;2024-03-06T01:10:00;9.70;67.10
38325;DHT22;24126;52.672;13.622;2024-03-06T01:12:28;9.70;67.20
38325;DHT22;24126;52.672;13.622;2024-03-06T01:14:55;9.70;67.20
38325;DHT22;24126;52.672;13.622;2024-03-06T01:17:22;9.60;67.30
38325;DHT22;24126;52.672;13.622;2024-03-06T01:19:50;9.60;67.40
38325;DHT22;24126;52.672;13.622;2024-03-06T01:22:16;9.60;67.50
38325;DHT22;24126;52.672;13.622;2024-03-06T01:24:43;9.50;67.40
38325;DHT22;24126;52.672;13.622;2024-03-06T01:27:10;9.50;67.50
38325;DHT22;24126;52.672;13.622;2024-03-06T01:29:37;9.50;67.50
38325;DHT22;24126;52.672;13.622;2024-03-06T01:32:04;9.50;67.60
38325;DHT22;24126;52.672;13.622;2024-03-06T01:34:31;9.40;67.60
38325;DHT22;24126;52.672;13.622;2024-03-06T01:36:58;9.40;67.80
38325;DHT22;24126;52.672;13.622;2024-03-06T01:39:25;9.40;68.00
38325;DHT22;24126;52.672;13.622;2024-03-06T01:41:52;9.30;67.90
38325;DHT22;24126;52.672;13.622;2024-03-06T01:44:19;9.30;68.10
38325;DHT22;24126;52.672;13.622;2024-03-06T01:46:47;9.20;68.00
38325;DHT22;24126;52.672;13.622;2024-03-06T01:49:14;9.20;68.00
38325;DHT22;24126;52.672;13.622;2024-03-06T01:51:42;9.10;68.10
38325;DHT22;24126;52.672;13.622;2024-03-06T01:54:11;9.10;68.20
38325;DHT22;24126;52.672;13.622;2024-03-06T01:56:39;9.10;68.40
38325;DHT22;24126;52.672;13.622;2024-03-06T01:59:10;9.00;68.40
38325;DHT22;24126;52.672;13.622;2024-03-06T02:01:37;9.00;68.40
38325;DHT22;24126;52.672;13.622;2024-03-06T02:04:04;8.90;68.40
38325;DHT22;24126;52.672;13.622;2024-03-06T02:06:32;8.80;68.30
38325;DHT22;24126;52.672;13.622;2024-03-06T02:09:00;8.80;68.30
38325;DHT22;24126;52.672;13.622;2024-03-06T02:11:28;8.70;68.10
38325;DHT22;24126;52.672;13.622;2024-03-06T02:13:56;8.70;68.20
38325;DHT22;24126;52.672;13.622;2024-03-06T02:16:23;8.70;68.30
38325;DHT22;24126;52.672;13.622;2024-03-06T02:18:54;8.60;68.30
38325;DHT22;24126;52.672;13.622;2024-03-06T02:21:22;8.60;68.30
38325;DHT22;24126;52.672;13.622;2024-03-06T02:23:50;8.50;68.20
38325;DHT22;24126;52.672;13.622;2024-03-06T02:26:18;8.50;68.40
38325;DHT22;24126;52.672;13.622;2024-03-06T02:28:48;8.40;68.40
38325;DHT22;24126;52.672;13.622;2024-03-06T02:31:16;8.40;68.40
38325;DHT22;24126;52.672;13.622;2024-03-06T02:33:44;8.40;68.40
38325;DHT22;24126;52.672;13.622;2024-03-06T02:36:11;8.30;68.40
38325;DHT22;24126;52.672;13.622;2024-03-06T02:38:38;8.20;68.50
38325;DHT22;24126;52.672;13.622;2024-03-06T02:41:05;8.20;68.70
38325;DHT22;24126;52.672;13.622;2024-03-06T02:43:33;8.20;68.80
38325;DHT22;24126;52.672;13.622;2024-03-06T02:46:00;8.10;68.80
38325;DHT22;24126;52.672;13.622;2024-03-06T02:48:27;8.10;68.90
38325;DHT22;24126;52.672;13.622;2024-03-06T02:50:54;8.10;69.00
38325;DHT22;24126;52.672;13.622;2024-03-06T02:53:21;8.00;69.10
38325;DHT22;24126;52.672;13.622;2024-03-06T02:55:48;8.00;69.10
38325;DHT22;24126;52.672;13.622;2024-03-06T02:58:15;7.90;69.00
38325;DHT22;24126;52.672;13.622;2024-03-06T03:00:43;7.90;69.10
38325;DHT22;24126;52.672;13.622;2024-03-06T03:03:11;7.90;69.20
38325;DHT22;24126;52.672;13.622;2024-03-06T03:05:38;7.90;69.30
38325;DHT22;24126;52.672;13.622;2024-03-06T03:08:08;7.80;69.20
38325;DHT22;24126;52.672;13.622;2024-03-06T03:10:35;7.80;69.20
38325;DHT22;24126;52.672;13.622;2024-03-06T03:13:02;7.80;69.20
38325;DHT22;24126;52.672;13.622;2024-03-06T03:15:30;7.70;69.50
38325;DHT22;24126;52.672;13.622;2024-03-06T03:17:58;7.70;69.50
38325;DHT22;24126;52.672;13.622;2024-03-06T03:20:25;7.70;69.50
38325;DHT22;24126;52.672;13.622;2024-03-06T03:22:53;7.70;69.60
38325;DHT22;24126;52.672;13.622;2024-03-06T03:25:20;7.70;69.60
38325;DHT22;24126;52.672;13.622;2024-03-06T03:27:48;7.70;69.50
38325;DHT22;24126;52.672;13.622;2024-03-06T03:30:16;7.70;69.60
38325;DHT22;24126;52.672;13.622;2024-03-06T03:32:46;7.70;69.70
38325;DHT22;24126;52.672;13.622;2024-03-06T03:35:13;7.60;69.70
38325;DHT22;24126;52.672;13.622;2024-03-06T03:37:40;7.60;69.70
38325;DHT22;24126;52.672;13.622;2024-03-06T03:40:09;7.60;69.80
38325;DHT22;24126;52.672;13.622;2024-03-06T03:42:37;7.60;69.80
38325;DHT22;24126;52.672;13.622;2024-03-06T03:45:05;7.50;69.70
38325;DHT22;24126;52.672;13.622;2024-03-06T03:47:32;7.50;69.60
38325;DHT22;24126;52.672;13.622;2024-03-06T03:49:59;7.40;69.60
38325;DHT22;24126;52.672;13.622;2024-03-06T03:52:26;7.40;69.60
38325;DHT22;24126;52.672;13.622;2024-03-06T03:54:53;7.40;69.60
38325;DHT22;24126;52.672;13.622;2024-03-06T03:57:21;7.40;69.50
38325;DHT22;24126;52.672;13.622;2024-03-06T03:59:48;7.30;69.40
38325;DHT22;24126;52.672;13.622;2024-03-06T04:02:15;7.30;69.50
38325;DHT22;24126;52.672;13.622;2024-03-06T04:04:42;7.20;69.40
38325;DHT22;24126;52.672;13.622;2024-03-06T04:07:09;7.20;69.40
38325;DHT22;24126;52.672;13.622;2024-03-06T04:09:36;7.20;69.50
38325;DHT22;24126;52.672;13.622;2024-03-06T04:12:04;7.10;69.50
38325;DHT22;24126;52.672;13.622;2024-03-06T04:14:31;7.10;69.60
38325;DHT22;24126;52.672;13.622;2024-03-06T04:16:58;7.10;69.70
38325;DHT22;24126;52.672;13.622;2024-03-06T04:19:26;7.10;69.70
38325;DHT22;24126;52.672;13.622;2024-03-06T04:21:53;7.00;69.60
38325;DHT22;24126;52.672;13.622;2024-03-06T04:24:20;7.00;69.80
38325;DHT22;24126;52.672;13.622;2024-03-06T04:26:47;7.00;69.90
38325;DHT22;24126;52.672;13.622;2024-03-06T04:29:14;7.00;70.00
38325;DHT22;24126;52.672;13.622;2024-03-06T04:31:41;7.00;70.00
38325;DHT22;24126;52.672;13.622;2024-03-06T04:34:08;6.90;69.90
38325;DHT22;24126;52.672;13.622;2024-03-06T04:36:35;6.90;69.90
38325;DHT22;24126;52.672;13.622;2024-03-06T04:39:03;6.90;70.10
38325;DHT22;24126;52.672;13.622;2024-03-06T04:41:33;6.90;70.20
38325;DHT22;24126;52.672;13.622;2024-03-06T04:44:00;6.90;70.20
38325;DHT22;24126;52.672;13.622;2024-03-06T04:46:27;6.90;70.30
38325;DHT22;24126;52.672;13.622;2024-03-06T04:48:54;6.90;70.40
38325;DHT22;24126;52.672;13.622;2024-03-06T04:51:21;6.90;70.50
38325;DHT22;24126;52.672;13.622;2024-03-06T04:53:48;6.80;70.80
38325;DHT22;24126;52.672;13.622;2024-03-06T04:56:15;6.80;71.00
38325;DHT22;24126;52.672;13.622;2024-03-06T04:58:44;6.80;71.30
38325;DHT22;24126;52.672;13.622;2024-03-06T05:01:12;6.80;71.40
38325;DHT22;24126;52.672;13.622;2024-03-06T05:03:39;6.80;71.30
38325;DHT22;24126;52.672;13.622;2024-03-06T05:06:06;6.80;71.10
38325;DHT22;24126;52.672;13.622;2024-03-06T05:08:33;6.80;71.20
38325;DHT22;24126;52.672;13.622;2024-03-06T05:11:00;6.80;71.20
38325;DHT22;24126;52.672;13.622;2024-03-06T05:13:28;6.70;71.30
38325;DHT22;24126;52.672;13.622;2024-03-06T05:15:55;6.70;71.30
38325;DHT22;24126;52.672;13.622;2024-03-06T05:18:22;6.70;71.20
38325;DHT22;24126;52.672;13.622;2024-03-06T05:20:49;6.70;71.20
38325;DHT22;24126;52.672;13.622;2024-03-06T05:23:16;6.70;71.10
38325;DHT22;24126;52.672;13.622;2024-03-06T05:25:43;6.70;71.00
38325;DHT22;24126;52.672;13.622;2024-03-06T05:28:10;6.70;70.90
38325;DHT22;24126;52.672;13.622;2024-03-06T05:30:37;6.70;70.90
38325;DHT22;24126;52.672;13.622;2024-03-06T05:33:04;6.60;70.90
38325;DHT22;24126;52.672;13.622;2024-03-06T05:35:31;6.50;71.00
38325;DHT22;24126;52.672;13.622;2024-03-06T05:37:58;6.50;71.30
38325;DHT22;24126;52.672;13.622;2024-03-06T05:40:26;6.50;71.30
38325;DHT22;24126;52.672;13.622;2024-03-06T05:42:53;6.50;71.30
38325;DHT22;24126;52.672;13.622;2024-03-06T05:45:20;6.40;71.40
38325;DHT22;24126;52.672;13.622;2024-03-06T05:47:47;6.40;71.40
38325;DHT22;24126;52.672;13.622;2024-03-06T05:50:14;6.40;71.40
38325;DHT22;24126;52.672;13.622;2024-03-06T05:52:42;6.40;71.40
38325;DHT22;24126;52.672;13.622;2024-03-06T05:55:13;6.40;71.30
38325;DHT22;24126;52.672;13.622;2024-03-06T05:57:40;6.50;71.30
38325;DHT22;24126;52.672;13.622;2024-03-06T06:00:11;6.50;71.30
38325;DHT22;24126;52.672;13.622;2024-03-06T06:02:38;6.50;71.20
38325;DHT22;24126;52.672;13.622;2024-03-06T06:05:06;6.50;71.20
38325;DHT22;24126;52.672;13.622;2024-03-06T06:07:34;6.50;71.10
38325;DHT22;24126;52.672;13.622;2024-03-06T06:10:01;6.50;71.10
38325;DHT22;24126;52.672;13.622;2024-03-06T06:12:29;6.50;71.00
38325;DHT22;24126;52.672;13.622;2024-03-06T06:14:56;6.60;71.00
38325;DHT22;24126;52.672;13.622;2024-03-06T06:17:23;6.60;70.80
38325;DHT22;24126;52.672;13.622;2024-03-06T06:19:50;6.60;70.90
38325;DHT22;24126;52.672;13.622;2024-03-06T06:22:17;6.70;71.00
38325;DHT22;24126;52.672;13.622;2024-03-06T06:24:44;6.70;71.20
38325;DHT22;24126;52.672;13.622;2024-03-06T06:27:13;6.70;71.60
38325;DHT22;24126;52.672;13.622;2024-03-06T06:29:40;6.80;72.10
38325;DHT22;24126;52.672;13.622;2024-03-06T06:32:07;7.00;72.40
38325;DHT22;24126;52.672;13.622;2024-03-06T06:34:34;7.40;72.20
38325;DHT22;24126;52.672;13.622;2024-03-06T06:37:01;8.00;71.30
38325;DHT22;24126;52.672;13.622;2024-03-06T06:39:28;8.50;70.40
38325;DHT22;24126;52.672;13.622;2024-03-06T06:41:56;9.00;69.80
38325;DHT22;24126;52.672;13.622;2024-03-06T06:44:23;9.70;69.10
38325;DHT22;24126;52.672;13.622;2024-03-06T06:46:50;10.40;67.80
38325;DHT22;24126;52.672;13.622;2024-03-06T06:49:17;11.10;66.30
38325;DHT22;24126;52.672;13.622;2024-03-06T06:51:45;11.70;64.10
38325;DHT22;24126;52.672;13.622;2024-03-06T06:54:12;12.30;62.50
38325;DHT22;24126;52.672;13.622;2024-03-06T06:56:39;12.70;60.20
38325;DHT22;24126;52.672;13.622;2024-03-06T06:59:06;12.60;59.20
38325;DHT22;24126;52.672;13.622;2024-03-06T07:01:33;12.30;59.10
38325;DHT22;24126;52.672;13.622;2024-03-06T07:04:00;12.10;59.60
38325;DHT22;24126;52.672;13.622;2024-03-06T07:06:28;12.30;60.00
38325;DHT22;24126;52.672;13.622;2024-03-06T07:08:55;12.70;59.90
38325;DHT22;24126;52.672;13.622;2024-03-06T07:11:22;13.50;58.80
38325;DHT22;24126;52.672;13.622;2024-03-06T07:13:49;14.10;57.00
38325;DHT22;24126;52.672;13.622;2024-03-06T07:16:17;14.60;55.50
38325;DHT22;24126;52.672;13.622;2024-03-06T07:18:45;14.70;54.90
38325;DHT22;24126;52.672;13.622;2024-03-06T07:21:12;14.60;54.90
38325;DHT22;24126;52.672;13.622;2024-03-06T07:23:39;14.60;55.20
38325;DHT22;24126;52.672;13.622;2024-03-06T07:26:06;14.90;54.70
38325;DHT22;24126;52.672;13.622;2024-03-06T07:28:33;15.20;54.20
38325;DHT22;24126;52.672;13.622;2024-03-06T07:31:00;15.40;53.80
38325;DHT22;24126;52.672;13.622;2024-03-06T07:33:31;15.80;52.50
38325;DHT22;24126;52.672;13.622;2024-03-06T07:36:06;15.80;52.40
38325;DHT22;24126;52.672;13.622;2024-03-06T07:38:35;16.00;52.20
38325;DHT22;24126;52.672;13.622;2024-03-06T07:41:04;16.20;51.30
38325;DHT22;24126;52.672;13.622;2024-03-06T07:43:32;16.20;51.20
38325;DHT22;24126;52.672;13.622;2024-03-06T07:45:59;16.00;51.20
38325;DHT22;24126;52.672;13.622;2024-03-06T07:48:27;15.60;51.80
38325;DHT22;24126;52.672;13.622;2024-03-06T07:50:54;15.10;53.00
38325;DHT22;24126;52.672;13.622;2024-03-06T07:53:21;14.90;54.70
38325;DHT22;24126;52.672;13.622;2024-03-06T07:55:48;14.90;54.30
38325;DHT22;24126;52.672;13.622;2024-03-06T07:58:21;14.80;54.30
38325;DHT22;24126;52.672;13.622;2024-03-06T08:00:53;14.70;54.30
38325;DHT22;24126;52.672;13.622;2024-03-06T08:03:38;14.40;55.30
38325;DHT22;24126;52.672;13.622;2024-03-06T08:06:05;14.30;56.00
38325;DHT22;24126;52.672;13.622;2024-03-06T08:08:47;14.10;56.60
38325;DHT22;24126;52.672;13.622;2024-03-06T08:11:42;14.10;57.20
38325;DHT22;24126;52.672;13.622;2024-03-06T08:14:34;14.10;57.20
38325;DHT22;24126;52.672;13.622;2024-03-06T08:17:02;14.10;56.90
38325;DHT22;24126;52.672;13.622;2024-03-06T08:19:56;14.00;57.80
38325;DHT22;24126;52.672;13.622;2024-03-06T08:22:23;14.20;57.90
38325;DHT22;24126;52.672;13.622;2024-03-06T08:24:50;14.70;57.20
38325;DHT22;24126;52.672;13.622;2024-03-06T08:27:17;15.30;55.70
38325;DHT22;24126;52.672;13.622;2024-03-06T08:29:45;15.60;54.60
38325;DHT22;24126;52.672;13.622;2024-03-06T08:32:12;16.00;54.20
38325;DHT22;24126;52.672;13.622;2024-03-06T08:34:39;16.30;53.40
38325;DHT22;24126;52.672;13.622;2024-03-06T08:37:06;16.50;53.10
38325;DHT22;24126;52.672;13.622;2024-03-06T08:39:33;16.70;52.80
38325;DHT22;24126;52.672;13.622;2024-03-06T08:42:00;16.90;52.60
38325;DHT22;24126;52.672;13.622;2024-03-06T08:44:28;17.20;52.20
38325;DHT22;24126;52.672;13.622;2024-03-06T08:46:59;17.30;51.70
38325;DHT22;24126;52.672;13.622;2024-03-06T08:49:30;17.50;51.40
38325;DHT22;24126;52.672;13.622;2024-03-06T08:52:09;17.70;51.00
38325;DHT22;24126;52.672;13.622;2024-03-06T08:59:04;17.60;50.00
38325;DHT22;24126;52.672;13.622;2024-03-06T09:02:52;17.20;50.50
38325;DHT22;24126;52.672;13.622;2024-03-06T09:05:20;16.50;51.10
38325;DHT22;24126;52.672;13.622;2024-03-06T09:07:47;16.00;52.40
38325;DHT22;24126;52.672;13.622;2024-03-06T09:10:16;15.90;53.20
38325;DHT22;24126;52.672;13.622;2024-03-06T09:13:45;15.80;52.90
38325;DHT22;24126;52.672;13.622;2024-03-06T09:16:42;15.40;53.10
38325;DHT22;24126;52.672;13.622;2024-03-06T09:19:31;15.00;53.70
38325;DHT22;24126;52.672;13.622;2024-03-06T09:22:28;14.70;54.50
38325;DHT22;24126;52.672;13.622;2024-03-06T09:25:25;14.60;54.90
38325;DHT22;24126;52.672;13.622;2024-03-06T09:27:58;14.60;55.00
38325;DHT22;24126;52.672;13.622;2024-03-06T09:30:40;14.60;54.80
38325;DHT22;24126;52.672;13.622;2024-03-06T09:33:39;14.50;55.10
38325;DHT22;24126;52.672;13.622;2024-03-06T09:36:06;14.60;55.10
38325;DHT22;24126;52.672;13.622;2024-03-06T09:38:34;14.70;54.90
38325;DHT22;24126;52.672;13.622;2024-03-06T09:41:03;14.90;54.80
38325;DHT22;24126;52.672;13.622;2024-03-06T09:43:30;14.90;54.50
38325;DHT22;24126;52.672;13.622;2024-03-06T09:45:59;14.90;54.70
38325;DHT22;24126;52.672;13.622;2024-03-06T09:48:33;14.90;54.70
38325;DHT22;24126;52.672;13.622;2024-03-06T09:51:04;14.90;54.90
38325;DHT22;24126;52.672;13.622;2024-03-06T09:53:31;14.90;55.20
38325;DHT22;24126;52.672;13.622;2024-03-06T09:57:08;14.90;54.70
38325;DHT22;24126;52.672;13.622;2024-03-06T09:59:35;14.90;54.70
38325;DHT22;24126;52.672;13.622;2024-03-06T10:02:21;14.70;54.40
38325;DHT22;24126;52.672;13.622;2024-03-06T10:05:23;14.60;55.20
38325;DHT22;24126;52.672;13.622;2024-03-06T10:07:51;14.60;54.70
38325;DHT22;24126;52.672;13.622;2024-03-06T10:10:19;14.70;54.60
38325;DHT22;24126;52.672;13.622;2024-03-06T10:12:46;14.80;54.60
38325;DHT22;24126;52.672;13.622;2024-03-06T10:15:14;14.90;54.70
38325;DHT22;24126;52.672;13.622;2024-03-06T10:17:41;15.00;54.60
38325;DHT22;24126;52.672;13.622;2024-03-06T10:20:18;15.20;54.70
38325;DHT22;24126;52.672;13.622;2024-03-06T10:22:47;15.20;54.30
38325;DHT22;24126;52.672;13.622;2024-03-06T10:25:14;15.20;54.10
38325;DHT22;24126;52.672;13.622;2024-03-06T10:27:41;15.10;54.50
38325;DHT22;24126;52.672;13.622;2024-03-06T10:30:22;15.10;54.40
38325;DHT22;24126;52.672;13.622;2024-03-06T10:32:49;15.10;54.50
38325;DHT22;24126;52.672;13.622;2024-03-06T10:35:39;15.20;54.30
38325;DHT22;24126;52.672;13.622;2024-03-06T10:38:12;15.30;54.30
38325;DHT22;24126;52.672;13.622;2024-03-06T10:40:50;15.40;53.40
38325;DHT22;24126;52.672;13.622;2024-03-06T10:44:15;15.40;53.20
38325;DHT22;24126;52.672;13.622;2024-03-06T10:47:20;15.60;53.60
38325;DHT22;24126;52.672;13.622;2024-03-06T10:49:47;15.90;53.00
38325;DHT22;24126;52.672;13.622;2024-03-06T10:52:15;16.00;53.20
38325;DHT22;24126;52.672;13.622;2024-03-06T10:54:42;16.20;52.30
38325;DHT22;24126;52.672;13.622;2024-03-06T10:57:12;16.20;51.80
38325;DHT22;24126;52.672;13.622;2024-03-06T10:59:39;16.00;51.70
38325;DHT22;24126;52.672;13.622;2024-03-06T11:02:07;15.80;52.00
38325;DHT22;24126;52.672;13.622;2024-03-06T11:04:38;15.80;52.40
38325;DHT22;24126;52.672;13.622;2024-03-06T11:07:06;15.80;52.20
38325;DHT22;24126;52.672;13.622;2024-03-06T11:09:34;15.80;52.30
38325;DHT22;24126;52.672;13.622;2024-03-06T11:12:01;15.80;52.50
38325;DHT22;24126;52.672;13.622;2024-03-06T11:14:30;16.00;52.90
38325;DHT22;24126;52.672;13.622;2024-03-06T11:17:02;16.10;52.60
38325;DHT22;24126;52.672;13.622;2024-03-06T11:19:29;16.40;52.90
38325;DHT22;24126;52.672;13.622;2024-03-06T11:21:56;16.50;51.60
38325;DHT22;24126;52.672;13.622;2024-03-06T11:24:24;16.50;51.10
38325;DHT22;24126;52.672;13.622;2024-03-06T11:26:59;16.40;50.60
38325;DHT22;24126;52.672;13.622;2024-03-06T11:29:29;16.30;50.90
38325;DHT22;24126;52.672;13.622;2024-03-06T11:32:16;16.00;50.90
38325;DHT22;24126;52.672;13.622;2024-03-06T11:34:44;15.60;51.20
38325;DHT22;24126;52.672;13.622;2024-03-06T11:37:11;15.40;52.20
38325;DHT22;24126;52.672;13.622;2024-03-06T11:39:39;15.40;53.20
38325;DHT22;24126;52.672;13.622;2024-03-06T11:42:07;15.60;53.60
38325;DHT22;24126;52.672;13.622;2024-03-06T11:44:35;15.70;52.90
38325;DHT22;24126;52.672;13.622;2024-03-06T11:47:03;15.80;52.40
38325;DHT22;24126;52.672;13.622;2024-03-06T11:49:31;15.70;52.20
38325;DHT22;24126;52.672;13.622;2024-03-06T11:52:00;15.50;52.60
38325;DHT22;24126;52.672;13.622;2024-03-06T11:54:29;15.30;53.00
38325;DHT22;24126;52.672;13.622;2024-03-06T11:57:00;15.20;53.20
38325;DHT22;24126;52.672;13.622;2024-03-06T11:59:36;15.10;53.30
38325;DHT22;24126;52.672;13.622;2024-03-06T12:02:08;15.00;53.70
38325;DHT22;24126;52.672;13.622;2024-03-06T12:04:48;14.90;53.90
38325;DHT22;24126;52.672;13.622;2024-03-06T12:07:15;14.90;53.70
38325;DHT22;24126;52.672;13.622;2024-03-06T12:10:43;14.90;53.70
38325;DHT22;24126;52.672;13.622;2024-03-06T12:13:12;14.80;53.80
38325;DHT22;24126;52.672;13.622;2024-03-06T12:15:42;14.90;53.90
38325;DHT22;24126;52.672;13.622;2024-03-06T12:18:12;15.00;53.60
38325;DHT22;24126;52.672;13.622;2024-03-06T12:20:43;15.20;52.80
38325;DHT22;24126;52.672;13.622;2024-03-06T12:23:41;15.20;52.40
38325;DHT22;24126;52.672;13.622;2024-03-06T12:26:44;15.10;52.40
38325;DHT22;24126;52.672;13.622;2024-03-06T12:29:17;14.90;52.80
38325;DHT22;24126;52.672;13.622;2024-03-06T12:38:53;14.70;53.40
38325;DHT22;24126;52.672;13.622;2024-03-06T12:41:20;14.80;53.50
38325;DHT22;24126;52.672;13.622;2024-03-06T12:43:47;14.90;53.30
38325;DHT22;24126;52.672;13.622;2024-03-06T12:46:15;14.80;52.80
38325;DHT22;24126;52.672;13.622;2024-03-06T12:48:42;14.60;52.70
38325;DHT22;24126;52.672;13.622;2024-03-06T12:51:09;14.50;53.20
38325;DHT22;24126;52.672;13.622;2024-03-06T12:53:36;14.40;53.60
38325;DHT22;24126;52.672;13.622;2024-03-06T12:56:04;14.50;53.60
38325;DHT22;24126;52.672;13.622;2024-03-06T12:58:31;14.50;53.70
38325;DHT22;24126;52.672;13.622;2024-03-06T13:01:02;14.60;53.90
38325;DHT22;24126;52.672;13.622;2024-03-06T13:03:30;14.70;53.50
38325;DHT22;24126;52.672;13.622;2024-03-06T13:05:58;14.80;52.90
38325;DHT22;24126;52.672;13.622;2024-03-06T13:08:25;14.90;52.70
38325;DHT22;24126;52.672;13.622;2024-03-06T13:10:52;14.90;52.60
38325;DHT22;24126;52.672;13.622;2024-03-06T13:16:14;14.90;52.30
38325;DHT22;24126;52.672;13.622;2024-03-06T13:18:48;14.80;52.70
38325;DHT22;24126;52.672;13.622;2024-03-06T13:21:15;14.80;53.10
38325;DHT22;24126;52.672;13.622;2024-03-06T13:23:42;14.80;52.90
38325;DHT22;24126;52.672;13.622;2024-03-06T13:26:24;14.80;52.90
38325;DHT22;24126;52.672;13.622;2024-03-06T13:28:51;14.70;52.80
38325;DHT22;24126;52.672;13.622;2024-03-06T13:31:18;14.60;53.20
38325;DHT22;24126;52.672;13.622;2024-03-06T13:33:45;14.50;53.60
38325;DHT22;24126;52.672;13.622;2024-03-06T13:36:12;14.40;53.90
38325;DHT22;24126;52.672;13.622;2024-03-06T13:38:39;14.40;54.00
38325;DHT22;24126;52.672;13.622;2024-03-06T13:41:06;14.40;54.00
38325;DHT22;24126;52.672;13.622;2024-03-06T13:43:39;14.30;54.00
38325;DHT22;24126;52.672;13.622;2024-03-06T13:55:14;14.30;53.80
38325;DHT22;24126;52.672;13.622;2024-03-06T13:57:41;14.20;53.80
38325;DHT22;24126;52.672;13.622;2024-03-06T14:00:45;14.20;53.60
38325;DHT22;24126;52.672;13.622;2024-03-06T14:03:41;14.10;54.10
38325;DHT22;24126;52.672;13.622;2024-03-06T14:06:29;14.10;54.20
38325;DHT22;24126;52.672;13.622;2024-03-06T14:21:36;14.10;54.90
38325;DHT22;24126;52.672;13.622;2024-03-06T14:25:31;14.00;54.90
38325;DHT22;24126;52.672;13.622;2024-03-06T14:28:07;13.80;56.10
38325;DHT22;24126;52.672;13.622;2024-03-06T14:30:38;13.80;55.90
38325;DHT22;24126;52.672;13.622;2024-03-06T14:37:24;13.80;56.50
38325;DHT22;24126;52.672;13.622;2024-03-06T14:40:57;13.80;56.20
38325;DHT22;24126;52.672;13.622;2024-03-06T14:44:30;13.80;56.30
38325;DHT22;24126;52.672;13.622;2024-03-06T14:47:30;13.70;56.50
38325;DHT22;24126;52.672;13.622;2024-03-06T14:50:04;13.60;56.70
38325;DHT22;24126;52.672;13.622;2024-03-06T14:52:31;13.60;56.80
38325;DHT22;24126;52.672;13.622;2024-03-06T14:55:00;13.50;57.10
38325;DHT22;24126;52.672;13.622;2024-03-06T14:57:29;13.60;57.20
38325;DHT22;24126;52.672;13.622;2024-03-06T14:59:56;13.60;57.40
38325;DHT22;24126;52.672;13.622;2024-03-06T15:02:23;13.60;57.60
38325;DHT22;24126;52.672;13.622;2024-03-06T15:04:50;13.60;57.60
38325;DHT22;24126;52.672;13.622;2024-03-06T15:07:17;13.60;57.70
38325;DHT22;24126;52.672;13.622;2024-03-06T15:09:44;13.60;57.50
38325;DHT22;24126;52.672;13.622;2024-03-06T15:12:11;13.70;57.70
38325;DHT22;24126;52.672;13.622;2024-03-06T15:14:38;13.70;57.80
38325;DHT22;24126;52.672;13.622;2024-03-06T15:17:05;13.70;57.90
38325;DHT22;24126;52.672;13.622;2024-03-06T15:19:32;13.60;57.80
38325;DHT22;24126;52.672;13.622;2024-03-06T15:22:09;13.70;58.00
38325;DHT22;24126;52.672;13.622;2024-03-06T15:24:36;13.60;58.00
38325;DHT22;24126;52.672;13.622;2024-03-06T15:27:04;13.60;57.90
38325;DHT22;24126;52.672;13.622;2024-03-06T15:29:32;13.60;57.90
38325;DHT22;24126;52.672;13.622;2024-03-06T15:32:06;13.50;58.10
38325;DHT22;24126;52.672;13.622;2024-03-06T15:34:36;13.50;58.20
38325;DHT22;24126;52.672;13.622;2024-03-06T15:37:04;13.40;58.30
38325;DHT22;24126;52.672;13.622;2024-03-06T15:39:31;13.40;58.30
38325;DHT22;24126;52.672;13.622;2024-03-06T15:42:00;13.50;58.40
38325;DHT22;24126;52.672;13.622;2024-03-06T15:44:27;13.40;58.50
38325;DHT22;24126;52.672;13.622;2024-03-06T15:46:54;13.40;58.60
38325;DHT22;24126;52.672;13.622;2024-03-06T15:49:22;13.40;59.40
38325;DHT22;24126;52.672;13.622;2024-03-06T15:51:51;13.40;58.80
38325;DHT22;24126;52.672;13.622;2024-03-06T15:54:19;13.30;59.10
38325;DHT22;24126;52.672;13.622;2024-03-06T15:56:46;13.30;59.20
38325;DHT22;24126;52.672;13.622;2024-03-06T15:59:13;13.30;59.30
38325;DHT22;24126;52.672;13.622;2024-03-06T16:01:40;13.30;59.20
38325;DHT22;24126;52.672;13.622;2024-03-06T16:04:07;13.30;59.20
38325;DHT22;24126;52.672;13.622;2024-03-06T16:06:34;13.30;59.40
38325;DHT22;24126;52.672;13.622;2024-03-06T16:09:01;13.20;59.40
38325;DHT22;24126;52.672;13.622;2024-03-06T16:11:30;13.20;59.50
38325;DHT22;24126;52.672;13.622;2024-03-06T16:13:57;13.20;59.50
38325;DHT22;24126;52.672;13.622;2024-03-06T16:16:25;13.20;59.60
38325;DHT22;24126;52.672;13.622;2024-03-06T16:18:52;13.20;59.60
38325;DHT22;24126;52.672;13.622;2024-03-06T16:21:19;13.20;59.70
38325;DHT22;24126;52.672;13.622;2024-03-06T16:23:47;13.10;59.90
38325;DHT22;24126;52.672;13.622;2024-03-06T16:26:15;13.20;60.00